createdAt,value
2022-10-11T00:00:32.167Z,13.57
2022-10-11T00:03:02.325Z,14.13
2022-10-11T00:05:30.824Z,13.80
2022-10-11T00:07:59.474Z,13.75
2022-10-11T00:10:28.202Z,13.70
2022-10-11T00:12:56.733Z,14.32
2022-10-11T00:15:27.408Z,14.32
2022-10-11T00:17:55.717Z,13.95
2022-10-11T00:20:26.549Z,14.18
2022-10-11T00:22:54.945Z,13.75
2022-10-11T00:25:23.333Z,14.20
2022-10-11T00:27:51.620Z,14.15
2022-10-11T00:30:20.038Z,14.07
2022-10-11T00:32:50.502Z,13.88
2022-10-11T00:35:22.484Z,13.90
2022-10-11T00:40:22.717Z,14.65
2022-10-11T00:42:50.760Z,14.90
2022-10-11T00:46:01.206Z,14.75
2022-10-11T00:48:36.370Z,14.82
2022-10-11T00:51:09.604Z,14.73
2022-10-11T00:53:45.152Z,14.80
2022-10-11T00:56:18.556Z,15.02
2022-10-11T00:58:49.681Z,15.32
2022-10-11T01:01:20.526Z,15.32
2022-10-11T01:03:52.101Z,15.18
2022-10-11T01:06:21.242Z,14.95
2022-10-11T01:08:55.399Z,14.55
2022-10-11T01:11:26.568Z,14.73
2022-10-11T01:14:12.984Z,14.40
2022-10-11T01:16:49.292Z,15.07
2022-10-11T01:19:37.257Z,15.55
2022-10-11T01:22:12.037Z,14.57
2022-10-11T01:25:17.828Z,15.38
2022-10-11T01:28:01.725Z,15.00
2022-10-11T01:30:36.495Z,14.80
2022-10-11T01:33:15.933Z,14.50
2022-10-11T01:35:53.932Z,15.20
2022-10-11T01:38:26.978Z,14.15
2022-10-11T01:41:03.843Z,14.77
2022-10-11T01:43:34.634Z,14.55
2022-10-11T01:46:06.698Z,15.02
2022-10-11T01:48:49.613Z,15.38
2022-10-11T01:51:22.922Z,15.30
2022-10-11T01:54:06.594Z,15.02
2022-10-11T01:57:15.142Z,15.30
2022-10-11T01:59:57.250Z,15.63
2022-10-11T02:02:42.467Z,16.92
2022-10-11T02:05:20.189Z,16.00
2022-10-11T02:08:01.010Z,15.75
2022-10-11T02:10:35.321Z,15.70
2022-10-11T02:13:09.626Z,16.20
2022-10-11T02:15:42.373Z,15.40
2022-10-11T02:18:19.452Z,15.63
2022-10-11T02:20:50.217Z,15.45
2022-10-11T02:23:27.838Z,15.15
2022-10-11T02:25:58.741Z,15.48
2022-10-11T02:28:33.012Z,14.65
2022-10-11T02:31:04.161Z,14.73
2022-10-11T02:33:42.265Z,15.52
2022-10-11T02:36:17.376Z,15.32
2022-10-11T02:38:50.125Z,15.43
2022-10-11T02:41:25.900Z,15.52
2022-10-11T02:44:02.390Z,14.95
2022-10-11T02:46:34.666Z,15.25
2022-10-11T02:49:05.390Z,15.02
2022-10-11T02:51:34.367Z,14.15
2022-10-11T02:54:05.299Z,15.25
2022-10-11T02:56:33.857Z,14.85
2022-10-11T02:59:02.158Z,15.57
2022-10-11T03:01:31.018Z,15.10
2022-10-11T03:04:04.418Z,14.73
2022-10-11T03:06:34.197Z,14.07
2022-10-11T03:09:05.363Z,14.73
2022-10-11T03:11:37.636Z,14.27
2022-10-11T03:14:12.412Z,14.95
2022-10-11T03:16:43.173Z,14.98
2022-10-11T03:19:19.535Z,15.50
2022-10-11T03:21:47.736Z,14.38
2022-10-11T03:24:18.623Z,14.65
2022-10-11T03:26:47.171Z,14.45
2022-10-11T03:29:18.708Z,14.20
2022-10-11T03:31:50.348Z,13.85
2022-10-11T03:34:23.571Z,14.02
2022-10-11T03:36:56.459Z,13.68
2022-10-11T03:39:25.767Z,14.25
2022-10-11T03:41:55.964Z,13.85
2022-10-11T03:44:23.999Z,15.52
2022-10-11T03:46:57.488Z,14.60
2022-10-11T03:49:27.330Z,14.20
2022-10-11T03:51:56.370Z,13.88
2022-10-11T03:54:26.563Z,13.32
2022-10-11T03:57:00.001Z,13.75
2022-10-11T03:59:29.209Z,13.27
2022-10-11T04:01:57.274Z,13.73
2022-10-11T04:04:34.680Z,14.07
2022-10-11T04:07:05.813Z,12.93
2022-10-11T04:09:35.002Z,13.93
2022-10-11T04:12:05.029Z,13.88
2022-10-11T04:14:36.920Z,13.57
2022-10-11T04:17:10.407Z,13.00
2022-10-11T04:19:45.811Z,14.13
2022-10-11T04:22:16.100Z,14.63
2022-10-11T04:24:45.603Z,14.07
2022-10-11T04:27:15.271Z,14.15
2022-10-11T04:29:45.845Z,13.85
2022-10-11T04:32:14.277Z,13.23
2022-10-11T04:34:44.142Z,13.10
2022-10-11T04:37:16.500Z,13.40
2022-10-11T04:39:47.640Z,12.88
2022-10-11T04:42:18.968Z,13.18
2022-10-11T04:44:48.043Z,13.98
2022-10-11T04:47:18.464Z,13.48
2022-10-11T04:49:49.359Z,13.10
2022-10-11T04:52:22.115Z,12.77
2022-10-11T04:54:55.390Z,12.60
2022-10-11T04:57:24.911Z,12.18
2022-10-11T04:59:53.233Z,12.45
2022-10-11T05:02:30.786Z,11.93
2022-10-11T05:05:06.594Z,12.80
2022-10-11T05:07:37.843Z,11.95
2022-10-11T05:10:09.983Z,12.00
2022-10-11T05:12:39.225Z,12.45
2022-10-11T05:15:10.865Z,11.77
2022-10-11T05:17:39.761Z,12.80
2022-10-11T05:20:11.128Z,12.27
2022-10-11T05:22:39.545Z,13.38
2022-10-11T05:25:08.296Z,13.57
2022-10-11T05:27:38.629Z,13.85
2022-10-11T05:30:10.936Z,13.02
2022-10-11T05:32:48.229Z,12.80
2022-10-11T05:35:24.065Z,12.25
2022-10-11T05:37:54.420Z,12.65
2022-10-11T05:40:25.543Z,14.90
2022-10-11T05:42:56.917Z,14.53
2022-10-11T05:45:25.393Z,13.48
2022-10-11T05:47:59.768Z,13.38
2022-10-11T05:50:31.595Z,12.73
2022-10-11T05:53:00.480Z,13.32
2022-10-11T05:55:36.489Z,15.40
2022-10-11T05:58:08.255Z,13.70
2022-10-11T06:00:39.262Z,14.32
2022-10-11T06:03:08.951Z,13.77
2022-10-11T06:05:40.080Z,13.75
2022-10-11T06:08:10.036Z,13.40
2022-10-11T06:10:44.051Z,13.32
2022-10-11T06:13:15.754Z,13.75
2022-10-11T06:15:46.269Z,13.55
2022-10-11T06:18:16.347Z,14.18
2022-10-11T06:20:53.663Z,13.25
2022-10-11T06:23:23.680Z,12.48
2022-10-11T06:26:00.339Z,12.48
2022-10-11T06:28:37.036Z,12.63
2022-10-11T06:31:09.616Z,12.55
2022-10-11T06:33:43.255Z,12.38
2022-10-11T06:36:21.422Z,12.27
2022-10-11T06:38:55.995Z,11.85
2022-10-11T06:41:26.842Z,12.05
2022-10-11T06:43:55.855Z,11.98
2022-10-11T06:46:28.734Z,11.88
2022-10-11T06:48:58.163Z,11.98
2022-10-11T06:51:31.717Z,11.65
2022-10-11T06:54:02.698Z,10.95
2022-10-11T06:56:33.054Z,11.63
2022-10-11T06:59:05.981Z,11.73
2022-10-11T07:01:43.169Z,11.57
2022-10-11T07:04:13.998Z,11.40
2022-10-11T07:06:48.019Z,11.80
2022-10-11T07:09:17.360Z,11.25
2022-10-11T07:11:46.331Z,12.00
2022-10-11T07:14:14.755Z,11.45
2022-10-11T07:16:49.915Z,11.50
2022-10-11T07:19:24.712Z,11.35
2022-10-11T07:22:09.470Z,11.35
2022-10-11T07:24:50.351Z,11.52
2022-10-11T07:27:22.691Z,12.23
2022-10-11T07:29:54.646Z,12.07
2022-10-11T07:32:25.139Z,11.90
2022-10-11T07:34:57.210Z,12.75
2022-10-11T07:37:36.837Z,12.27
2022-10-11T07:40:10.859Z,11.95
2022-10-11T07:42:40.463Z,12.60
2022-10-11T07:45:11.953Z,12.60
2022-10-11T07:47:46.784Z,12.00
2022-10-11T07:50:18.103Z,12.07
2022-10-11T07:52:49.918Z,12.30
2022-10-11T07:57:49.733Z,11.10
2022-10-11T08:00:18.850Z,11.23
2022-10-11T08:03:15.175Z,11.07
2022-10-11T08:05:43.393Z,10.50
2022-10-11T08:08:16.580Z,10.48
2022-10-11T08:10:47.061Z,10.10
2022-10-11T08:13:15.317Z,10.90
2022-10-11T08:15:44.102Z,10.75
2022-10-11T08:18:18.753Z,10.80
2022-10-11T08:20:49.596Z,11.38
2022-10-11T08:23:22.419Z,10.98
2022-10-11T08:26:00.112Z,11.48
2022-10-11T08:28:31.196Z,11.32
2022-10-11T08:31:04.168Z,11.60
2022-10-11T08:33:32.651Z,12.18
2022-10-11T08:36:04.833Z,11.43
2022-10-11T08:38:37.980Z,12.05
2022-10-11T08:41:26.010Z,11.82
2022-10-11T08:44:07.235Z,11.20
2022-10-11T08:46:38.797Z,11.30
2022-10-11T08:49:10.383Z,12.32
2022-10-11T08:51:43.697Z,12.50
2022-10-11T08:54:21.973Z,12.70
2022-10-11T08:56:53.040Z,12.93
2022-10-11T08:59:32.212Z,12.57
2022-10-11T09:02:06.519Z,12.82
2022-10-11T09:04:38.579Z,12.27
2022-10-11T09:07:14.796Z,12.68
2022-10-11T09:10:10.846Z,12.02
2022-10-11T09:12:52.341Z,12.75
2022-10-11T09:18:16.186Z,12.98
2022-10-11T09:21:03.883Z,12.77
2022-10-11T09:23:46.299Z,12.27
2022-10-11T09:26:26.671Z,12.13
2022-10-11T09:29:01.574Z,13.77
2022-10-11T09:31:31.102Z,12.88
2022-10-11T09:34:11.455Z,13.07
2022-10-11T09:36:49.045Z,13.48
2022-10-11T09:39:28.797Z,12.90
2022-10-11T09:42:02.828Z,12.23
2022-10-11T09:44:37.885Z,12.77
2022-10-11T09:47:16.236Z,12.57
2022-10-11T09:49:51.900Z,12.30
2022-10-11T09:52:25.726Z,12.23
2022-10-11T09:55:00.874Z,12.38
2022-10-11T09:57:34.305Z,12.35
2022-10-11T10:00:10.199Z,12.15
2022-10-11T10:02:49.081Z,11.38
2022-10-11T10:05:22.506Z,11.50
2022-10-11T10:08:05.261Z,11.07
2022-10-11T10:10:40.843Z,11.50
2022-10-11T10:13:26.153Z,11.18
2022-10-11T10:15:59.067Z,10.65
2022-10-11T10:18:32.490Z,10.60
2022-10-11T10:21:04.518Z,10.30
2022-10-11T10:23:37.135Z,10.25
2022-10-11T10:26:17.240Z,10.38
2022-10-11T10:29:05.407Z,10.75
2022-10-11T10:32:01.988Z,10.77
2022-10-11T10:34:36.802Z,10.73
2022-10-11T10:37:16.892Z,11.32
2022-10-11T10:39:51.046Z,11.48
2022-10-11T10:42:22.783Z,10.40
2022-10-11T10:44:57.234Z,10.65
2022-10-11T10:47:40.038Z,10.05
2022-10-11T10:50:15.121Z,10.13
2022-10-11T10:53:00.553Z,9.57
2022-10-11T10:55:36.835Z,9.30
2022-10-11T10:58:27.867Z,10.15
2022-10-11T11:01:19.063Z,9.90
2022-10-11T11:03:53.920Z,9.98
2022-10-11T11:06:28.445Z,9.38
2022-10-11T11:09:14.964Z,9.20
2022-10-11T11:11:59.022Z,9.32
2022-10-11T11:14:44.141Z,10.80
2022-10-11T11:17:36.164Z,9.32
2022-10-11T11:22:54.974Z,9.82
2022-10-11T11:25:41.359Z,9.90
2022-10-11T11:28:27.559Z,9.63
2022-10-11T11:31:05.602Z,10.23
2022-10-11T11:33:48.651Z,9.88
2022-10-11T11:36:22.814Z,9.65
2022-10-11T11:38:55.708Z,9.95
2022-10-11T11:41:27.086Z,10.15
2022-10-11T11:44:13.347Z,10.18
2022-10-11T11:46:48.541Z,10.27
2022-10-11T11:49:26.440Z,9.40
2022-10-11T11:51:55.982Z,9.73
2022-10-11T11:54:38.285Z,8.93
2022-10-11T11:57:14.864Z,9.35
2022-10-11T11:59:56.255Z,10.30
2022-10-11T12:02:38.560Z,9.25
2022-10-11T12:05:11.665Z,9.98
2022-10-11T12:07:54.363Z,9.77
2022-10-11T12:10:54.789Z,10.38
2022-10-11T12:13:32.541Z,9.98
2022-10-11T12:16:13.265Z,10.35
2022-10-11T12:18:54.987Z,9.65
2022-10-11T12:21:37.262Z,9.80
2022-10-11T12:24:14.070Z,9.93
2022-10-11T12:26:47.156Z,9.43
2022-10-11T12:29:41.662Z,10.38
2022-10-11T12:32:59.903Z,9.68
2022-10-11T12:36:04.045Z,10.00
2022-10-11T12:38:43.838Z,9.48
2022-10-11T12:41:56.069Z,9.75
2022-10-11T12:47:27.234Z,9.45
2022-10-11T12:50:26.196Z,10.32
2022-10-11T12:53:07.122Z,11.23
2022-10-11T12:55:51.106Z,10.00
2022-10-11T12:58:31.087Z,9.75
2022-10-11T13:01:24.252Z,9.88
2022-10-11T13:04:07.705Z,10.07
2022-10-11T13:06:51.266Z,10.05
2022-10-11T13:09:28.588Z,10.63
2022-10-11T13:12:04.491Z,10.23
2022-10-11T13:14:39.125Z,10.35
2022-10-11T13:17:25.093Z,10.18
2022-10-11T13:20:00.931Z,10.80
2022-10-11T13:22:33.189Z,13.57
2022-10-11T13:25:05.574Z,10.90
2022-10-11T13:27:39.593Z,9.93
2022-10-11T13:30:16.458Z,12.13
2022-10-11T13:32:49.624Z,11.38
2022-10-11T13:35:24.759Z,11.52
2022-10-11T13:38:00.441Z,12.07
2022-10-11T13:40:33.534Z,10.90
2022-10-11T13:43:11.230Z,10.82
2022-10-11T13:45:41.357Z,10.20
2022-10-11T13:48:18.971Z,10.90
2022-10-11T13:51:09.395Z,10.75
2022-10-11T13:53:41.218Z,10.73
2022-10-11T13:56:19.866Z,10.48
2022-10-11T13:58:50.707Z,11.43
2022-10-11T14:01:23.921Z,11.60
2022-10-11T14:03:58.154Z,10.98
2022-10-11T14:06:44.165Z,10.65
2022-10-11T14:09:29.945Z,10.95
2022-10-11T14:12:28.056Z,11.10
2022-10-11T14:15:01.839Z,11.05
2022-10-11T14:17:44.901Z,10.70
2022-10-11T14:20:22.602Z,12.07
2022-10-11T14:22:57.228Z,11.02
2022-10-11T14:25:30.784Z,11.10
2022-10-11T14:28:06.572Z,10.93
2022-10-11T14:30:42.174Z,10.52
2022-10-11T14:33:16.346Z,11.65
2022-10-11T14:35:48.597Z,10.93
2022-10-11T14:38:21.321Z,11.65
2022-10-11T14:40:52.629Z,11.30
2022-10-11T14:43:23.171Z,11.48
2022-10-11T14:45:56.612Z,11.48
2022-10-11T14:48:50.409Z,11.27
2022-10-11T14:51:15.447Z,11.23
2022-10-11T14:53:49.462Z,11.20
2022-10-11T14:56:21.491Z,12.68
2022-10-11T14:58:50.656Z,12.13
2022-10-11T15:01:21.092Z,11.85
2022-10-11T15:03:52.070Z,11.82
2022-10-11T15:06:22.747Z,12.30
2022-10-11T15:08:51.758Z,12.75
2022-10-11T15:11:22.272Z,12.63
2022-10-11T15:13:50.964Z,13.00
2022-10-11T15:16:23.791Z,13.25
2022-10-11T15:18:52.815Z,13.68
2022-10-11T15:21:23.005Z,13.85
2022-10-11T15:23:53.580Z,13.95
2022-10-11T15:26:24.054Z,13.82
2022-10-11T15:28:53.620Z,15.38
2022-10-11T15:31:26.895Z,14.88
2022-10-11T15:34:01.415Z,15.43
2022-10-11T15:36:34.177Z,14.20
2022-10-11T15:39:21.505Z,14.55
2022-10-11T15:41:51.376Z,15.50
2022-10-11T15:44:23.071Z,27.63
2022-10-11T15:47:02.150Z,30.23
2022-10-11T15:49:37.263Z,28.10
2022-10-11T15:52:07.277Z,27.90
2022-10-11T15:54:37.104Z,24.70
2022-10-11T15:57:05.524Z,25.77
2022-10-11T15:59:33.820Z,27.17
2022-10-11T16:02:04.024Z,29.95
2022-10-11T16:04:32.651Z,36.15
2022-10-11T16:07:05.183Z,38.45
2022-10-11T16:09:33.984Z,39.22
2022-10-11T16:12:03.172Z,42.78
2022-10-11T16:14:42.586Z,40.45
2022-10-11T16:17:15.481Z,33.65
2022-10-11T16:19:50.478Z,38.88
2022-10-11T16:22:26.854Z,28.90
2022-10-11T16:24:56.758Z,29.73
2022-10-11T16:27:24.912Z,32.78
2022-10-11T16:29:55.495Z,31.08
2022-10-11T16:32:25.594Z,28.00
2022-10-11T16:34:58.650Z,25.35
2022-10-11T16:37:29.373Z,26.50
2022-10-11T16:39:58.161Z,25.55
2022-10-11T16:42:29.223Z,27.20
2022-10-11T16:44:58.859Z,25.55
2022-10-11T16:47:28.967Z,23.83
2022-10-11T16:49:59.286Z,24.67
2022-10-11T16:52:29.717Z,23.20
2022-10-11T16:54:58.289Z,23.60
2022-10-11T16:57:26.729Z,24.23
2022-10-11T16:59:55.372Z,24.30
2022-10-11T17:02:31.334Z,25.40
2022-10-11T17:05:02.762Z,25.83
2022-10-11T17:07:32.200Z,26.23
2022-10-11T17:10:01.419Z,26.23
2022-10-11T17:12:32.354Z,26.67
2022-10-11T17:15:01.275Z,26.47
2022-10-11T17:17:31.556Z,26.60
2022-10-11T17:20:05.684Z,26.13
2022-10-11T17:22:35.523Z,26.60
2022-10-11T17:25:04.320Z,26.77
2022-10-11T17:27:33.495Z,25.65
2022-10-11T17:30:03.585Z,25.17
2022-10-11T17:32:36.809Z,26.17
2022-10-11T17:35:08.199Z,26.20
2022-10-11T17:37:37.542Z,25.77
2022-10-11T17:40:10.057Z,24.60
2022-10-11T17:42:42.760Z,25.42
2022-10-11T17:45:12.182Z,25.80
2022-10-11T17:47:40.217Z,26.05
2022-10-11T17:50:10.782Z,24.83
2022-10-11T17:52:39.327Z,25.30
2022-10-11T17:55:07.722Z,26.35
2022-10-11T17:57:37.353Z,26.10
2022-10-11T18:00:06.644Z,26.17
2022-10-11T18:02:34.767Z,25.83
2022-10-11T18:05:05.760Z,24.98
2022-10-11T18:07:38.184Z,24.52
2022-10-11T18:10:07.405Z,25.27
2022-10-11T18:12:36.385Z,25.20
2022-10-11T18:15:04.545Z,24.65
2022-10-11T18:17:34.030Z,24.88
2022-10-11T18:20:03.635Z,25.33
2022-10-11T18:22:32.158Z,25.85
2022-10-11T18:25:03.001Z,28.13
2022-10-11T18:27:31.181Z,28.20
2022-10-11T18:29:59.521Z,28.75
2022-10-11T18:32:27.966Z,28.75
2022-10-11T18:34:58.896Z,30.20
2022-10-11T18:37:28.910Z,30.08
2022-10-11T18:39:57.514Z,30.23
2022-10-11T18:42:27.129Z,29.77
2022-10-11T18:44:55.816Z,31.38
2022-10-11T18:47:24.894Z,35.08
2022-10-11T18:49:52.914Z,34.47
2022-10-11T18:52:22.259Z,35.97
2022-10-11T18:54:50.926Z,34.53
2022-10-11T18:57:23.788Z,34.60
2022-10-11T18:59:54.440Z,37.20
2022-10-11T19:02:23.813Z,35.70
2022-10-11T19:04:53.781Z,36.40
2022-10-11T19:07:23.369Z,38.55
2022-10-11T19:09:53.141Z,35.92
2022-10-11T19:12:22.337Z,36.90
2022-10-11T19:14:54.993Z,36.75
2022-10-11T19:17:24.936Z,36.15
2022-10-11T19:19:59.834Z,35.33
2022-10-11T19:22:28.355Z,35.15
2022-10-11T19:24:56.640Z,36.05
2022-10-11T19:27:25.066Z,35.40
2022-10-11T19:29:53.682Z,35.60
2022-10-11T19:32:21.847Z,35.95
2022-10-11T19:34:52.250Z,35.85
2022-10-11T19:37:21.511Z,37.47
2022-10-11T19:39:50.118Z,38.70
2022-10-11T19:42:20.323Z,38.28
2022-10-11T19:44:48.378Z,37.53
2022-10-11T19:47:17.068Z,38.45
2022-10-11T19:49:45.809Z,39.47
2022-10-11T19:52:21.556Z,41.33
2022-10-11T19:54:51.955Z,42.38
2022-10-11T19:57:22.779Z,43.58
2022-10-11T19:59:53.276Z,42.83
2022-10-11T20:02:22.250Z,42.53
2022-10-11T20:04:53.369Z,42.05
2022-10-11T20:07:26.217Z,42.90
2022-10-11T20:09:56.589Z,42.03
2022-10-11T20:12:29.366Z,42.88
2022-10-11T20:14:58.849Z,42.53
2022-10-11T20:17:45.644Z,41.42
2022-10-11T20:20:14.686Z,40.67
2022-10-11T20:22:47.393Z,41.25
2022-10-11T20:25:20.104Z,40.35
2022-10-11T20:27:56.895Z,41.38
2022-10-11T20:30:29.720Z,40.50
2022-10-11T20:32:59.632Z,41.30
2022-10-11T20:35:27.964Z,42.28
2022-10-11T20:37:59.934Z,39.78
2022-10-11T20:40:28.253Z,39.15
2022-10-11T20:42:59.939Z,38.47
2022-10-11T20:45:29.838Z,38.22
2022-10-11T20:47:59.231Z,37.35
2022-10-11T20:50:34.555Z,37.97
2022-10-11T20:53:05.141Z,37.45
2022-10-11T20:55:36.818Z,35.83
2022-10-11T20:58:05.593Z,36.20
2022-10-11T21:00:34.431Z,36.78
2022-10-11T21:03:08.312Z,35.85
2022-10-11T21:05:39.020Z,35.53
2022-10-11T21:08:08.803Z,36.00
2022-10-11T21:10:38.765Z,35.70
2022-10-11T21:13:09.245Z,35.15
2022-10-11T21:15:37.991Z,34.30
2022-10-11T21:18:08.179Z,34.13
2022-10-11T21:20:42.329Z,34.15
2022-10-11T21:23:15.967Z,34.67
2022-10-11T21:25:46.736Z,36.45
2022-10-11T21:28:16.435Z,37.15
2022-10-11T21:30:48.464Z,36.67
2022-10-11T21:33:18.242Z,35.60
2022-10-11T21:35:49.837Z,34.90
2022-10-11T21:38:24.958Z,35.05
2022-10-11T21:40:56.217Z,34.35
2022-10-11T21:43:26.480Z,35.55
2022-10-11T21:45:55.233Z,33.80
2022-10-11T21:48:24.244Z,34.28
2022-10-11T21:50:59.133Z,35.92
2022-10-11T21:53:32.787Z,36.17
2022-10-11T21:56:02.777Z,35.25
2022-10-11T21:58:32.860Z,35.83
2022-10-11T22:01:07.511Z,35.25
2022-10-11T22:03:36.871Z,35.22
2022-10-11T22:06:10.909Z,36.45
2022-10-11T22:08:41.636Z,35.38
2022-10-11T22:11:13.689Z,34.35
2022-10-11T22:13:42.467Z,34.67
2022-10-11T22:16:13.184Z,34.67
2022-10-11T22:18:44.790Z,33.53
2022-10-11T22:21:21.396Z,32.88
2022-10-11T22:23:55.756Z,33.53
2022-10-11T22:26:27.454Z,34.33
2022-10-11T22:29:01.999Z,32.42
2022-10-11T22:31:36.748Z,32.65
2022-10-11T22:34:06.739Z,32.65
2022-10-11T22:36:39.274Z,33.53
2022-10-11T22:39:11.760Z,34.88
2022-10-11T22:41:41.762Z,35.85
2022-10-11T22:44:13.568Z,37.10
2022-10-11T22:46:42.053Z,37.05
2022-10-11T22:49:12.737Z,37.67
2022-10-11T22:51:45.922Z,36.88
2022-10-11T22:54:21.646Z,37.22
2022-10-11T22:56:50.043Z,37.53
2022-10-11T22:59:18.226Z,37.60
2022-10-11T23:01:46.609Z,37.65
2022-10-11T23:04:17.851Z,37.53
2022-10-11T23:06:46.140Z,36.28
2022-10-11T23:09:16.491Z,36.03
2022-10-11T23:11:45.361Z,35.40
2022-10-11T23:14:17.923Z,35.72
2022-10-11T23:16:48.269Z,37.28
2022-10-11T23:19:18.118Z,39.80
2022-10-11T23:21:46.597Z,38.95
2022-10-11T23:24:16.739Z,38.38
2022-10-11T23:26:45.285Z,42.40
2022-10-11T23:29:15.406Z,41.50
2022-10-11T23:31:45.132Z,41.10
2022-10-11T23:34:13.364Z,39.45
2022-10-11T23:36:42.657Z,40.50
2022-10-11T23:39:12.684Z,40.08
2022-10-11T23:41:46.969Z,37.90
2022-10-11T23:44:15.511Z,38.95
2022-10-11T23:46:43.637Z,39.80
2022-10-11T23:49:14.970Z,41.30
2022-10-11T23:51:50.490Z,38.20
2022-10-11T23:54:19.389Z,36.60
2022-10-11T23:56:49.063Z,38.10
2022-10-11T23:59:18.062Z,37.08
